Time;durP1;ratioP1;P1;durP2;ratioP2;P2;SDS_P1;SDS_P2;PMS_P1;PMS_P2;Temp;Humidity;BMP_temperature;BMP_pressure;BME280_temperature;BME280_humidity;BME280_pressure;Samples;Min_cycle;Max_cycle;Signal;HPM_P1;HPM_P2
2022/01/21 00:01:44;;;;;;;35.58;16.77;;;;;;;9.17;36.04;94938.78;5009484;28;20650;-66
2022/01/21 00:04:11;;;;;;;28.92;14.73;;;;;;;9.16;35.95;94923.31;5008859;28;20841;-66
2022/01/21 00:06:39;;;;;;;21.33;11.68;;;;;;;8.97;35.95;94938.53;5009153;28;20225;-67
2022/01/21 00:09:07;;;;;;;20.33;12.07;;;;;;;9.08;35.87;94932.41;5008387;28;20201;-67
2022/01/21 00:11:36;;;;;;;25.95;12.32;;;;;;;9.06;36.23;94944.94;5010426;28;20216;-66
2022/01/21 00:14:03;;;;;;;24.17;11.93;;;;;;;9.33;35.74;94944.16;5014791;28;20661;-66
2022/01/21 00:16:30;;;;;;;26.20;12.95;;;;;;;9.27;36.35;94958.22;5014844;28;20236;-66
2022/01/21 00:19:05;;;;;;;25.50;12.77;;;;;;;9.31;35.14;94961.91;5013265;28;20220;-66
2022/01/21 00:32:40;;;;;;;21.40;10.80;;;;;;;9.45;35.17;94965.72;5012927;28;20198;-66
2022/01/21 00:35:08;;;;;;;23.17;12.07;;;;;;;9.36;34.42;94972.44;5012474;28;20201;-66
2022/01/21 00:37:35;;;;;;;21.10;11.27;;;;;;;9.37;34.35;94977.41;5012525;28;20252;-65
2022/01/21 00:40:05;;;;;;;21.48;11.20;;;;;;;8.99;35.54;94980.13;5012247;28;20209;-66
2022/01/21 00:45:11;;;;;;;15.07;7.60;;;;;;;8.89;36.05;94979.97;5012058;28;20313;-66
2022/01/21 00:47:39;;;;;;;12.63;6.38;;;;;;;8.67;35.66;94973.94;5012409;28;20214;-66
2022/01/21 00:50:08;;;;;;;11.13;5.75;;;;;;;9.01;35.19;94984.03;5026923;28;20214;-66
2022/01/21 00:52:35;;;;;;;10.93;5.03;;;;;;;9.00;35.33;94969.41;5012444;28;20225;-65
2022/01/21 00:55:04;;;;;;;10.48;5.05;;;;;;;9.28;35.21;94983.31;5011869;28;20222;-66
2022/01/21 00:57:32;;;;;;;8.27;3.92;;;;;;;8.92;38.70;94985.50;5013217;28;20723;-66
2022/01/21 01:00:00;;;;;;;6.40;3.25;;;;;;;8.86;41.81;94986.50;5011835;28;20286;-66
2022/01/21 01:02:28;;;;;;;6.13;2.83;;;;;;;9.38;43.01;94991.28;5012293;28;20204;-65
2022/01/21 01:04:55;;;;;;;4.80;2.67;;;;;;;8.88;45.20;94996.69;5012014;28;20194;-67
2022/01/21 01:07:25;;;;;;;5.10;2.53;;;;;;;9.00;45.84;94992.94;5012002;28;20708;-67
2022/01/21 01:09:55;;;;;;;6.35;2.97;;;;;;;9.01;46.75;94998.97;5011245;28;20193;-65
2022/01/21 01:12:38;;;;;;;6.90;3.30;;;;;;;8.92;47.14;94987.34;5027230;28;20220;-65
2022/01/21 01:20:57;;;;;;;8.45;3.60;;;;;;;9.48;46.26;94986.16;5012881;28;20243;-65
2022/01/21 01:23:37;;;;;;;9.77;3.05;;;;;;;9.26;47.48;94973.13;5025080;28;20205;-65
2022/01/21 01:28:50;;;;;;;8.48;3.20;;;;;;;8.83;47.88;94981.72;5011431;28;20194;-65
2022/01/21 01:31:16;;;;;;;8.38;3.95;;;;;;;8.83;47.59;94986.97;5026579;28;20200;-66
2022/01/21 01:33:44;;;;;;;8.57;3.65;;;;;;;8.85;48.02;94986.75;5011452;28;20252;-65
2022/01/21 01:36:12;;;;;;;5.70;3.50;;;;;;;9.31;46.81;94981.00;5012127;28;20190;-65
2022/01/21 01:41:29;;;;;;;9.70;3.90;;;;;;;9.55;45.93;94971.06;5027081;28;20361;-69
2022/01/21 01:49:37;;;;;;;8.07;4.57;;;;;;;9.19;47.64;94968.09;5025618;28;20212;-66
2022/01/21 01:52:16;;;;;;;7.93;4.15;;;;;;;9.02;47.85;94969.16;5011363;28;20204;-66
2022/01/21 01:54:46;;;;;;;7.55;4.40;;;;;;;8.66;48.71;94970.56;5025664;28;20209;-66
2022/01/21 01:57:13;;;;;;;7.35;4.63;;;;;;;8.28;51.15;94978.38;5011345;28;20683;-66
2022/01/21 01:59:40;;;;;;;7.28;4.45;;;;;;;8.18;51.21;94968.53;5009063;28;20273;-66
2022/01/21 02:02:12;;;;;;;7.22;4.38;;;;;;;8.46;50.40;94980.72;5010623;28;20225;-66
2022/01/21 02:04:42;;;;;;;6.32;4.40;;;;;;;8.60;51.10;94986.38;5010351;28;20182;-67
2022/01/21 02:07:09;;;;;;;8.15;4.63;;;;;;;9.22;49.25;94985.09;5026571;28;20214;-66
2022/01/21 02:09:37;;;;;;;6.20;4.28;;;;;;;8.76;49.74;94985.53;5025514;28;20217;-66
2022/01/21 02:12:04;;;;;;;10.15;5.05;;;;;;;8.74;51.18;94988.41;5011135;28;20204;-66
2022/01/21 02:14:37;;;;;;;7.57;4.85;;;;;;;9.14;49.37;94983.69;5010540;28;20640;-66
2022/01/21 02:17:14;;;;;;;8.45;5.43;;;;;;;8.98;50.12;94989.78;5010503;28;20591;-66
2022/01/21 02:22:34;;;;;;;10.00;5.30;;;;;;;8.65;51.15;94989.84;5010889;28;20272;-67
2022/01/21 02:25:15;;;;;;;9.00;5.40;;;;;;;8.53;51.47;94983.94;5025448;28;20206;-67
2022/01/21 02:27:51;;;;;;;9.40;5.55;;;;;;;8.45;52.34;94994.03;5025247;28;20225;-68
2022/01/21 02:30:21;;;;;;;7.05;5.10;;;;;;;8.52;52.11;94990.19;5025375;28;20216;-67
2022/01/21 02:32:55;;;;;;;7.88;5.45;;;;;;;8.56;52.08;94990.53;5008602;28;20201;-66
2022/01/21 02:35:24;;;;;;;8.60;5.15;;;;;;;8.50;51.21;94992.28;5024369;28;20206;-66
2022/01/21 02:37:51;;;;;;;8.50;5.63;;;;;;;8.50;52.42;95007.94;5024981;28;20681;-65
2022/01/21 02:40:19;;;;;;;8.40;5.40;;;;;;;8.76;51.41;95019.50;5025211;28;20224;-66
2022/01/21 02:42:46;;;;;;;9.00;6.20;;;;;;;8.26;52.41;95022.19;5025026;28;20190;-66
2022/01/21 02:45:14;;;;;;;9.73;6.13;;;;;;;8.16;52.84;95027.19;5009036;28;20201;-65
2022/01/21 02:47:44;;;;;;;8.13;5.50;;;;;;;8.42;51.94;95031.84;5010336;28;20244;-65
2022/01/21 02:50:11;;;;;;;6.75;4.55;;;;;;;8.02;52.55;95042.41;5009704;28;20209;-65
2022/01/21 02:52:54;;;;;;;6.25;4.35;;;;;;;8.00;52.44;95039.22;5008756;28;20242;-66
2022/01/21 02:55:23;;;;;;;11.13;6.65;;;;;;;7.75;52.99;95045.81;5025297;28;20240;-65
2022/01/21 02:57:50;;;;;;;7.85;3.92;;;;;;;7.68;53.54;95035.50;5009530;28;20205;-65
2022/01/21 03:00:17;;;;;;;4.45;3.55;;;;;;;7.39;54.76;95040.97;5009950;28;20200;-65
2022/01/21 03:02:45;;;;;;;4.07;2.88;;;;;;;7.34;54.02;95033.03;5041841;28;20198;-65
2022/01/21 03:05:15;;;;;;;3.05;2.40;;;;;;;7.69;52.93;95042.31;5025248;28;20201;-65
2022/01/21 03:07:42;;;;;;;3.30;2.00;;;;;;;7.36;54.41;95049.25;5024980;28;20213;-65
2022/01/21 03:10:10;;;;;;;3.40;2.17;;;;;;;7.69;52.99;95038.91;5023476;28;20252;-66
2022/01/21 03:12:37;;;;;;;2.58;1.70;;;;;;;7.56;53.89;95047.00;5009800;28;20186;-66
2022/01/21 03:15:05;;;;;;;3.90;1.80;;;;;;;7.79;52.77;95033.91;5024665;28;20206;-65
2022/01/21 03:17:32;;;;;;;2.88;1.88;;;;;;;8.13;52.18;95048.56;5041500;28;20238;-67
2022/01/21 03:20:00;;;;;;;2.47;1.77;;;;;;;7.83;52.97;95042.81;5024275;28;20206;-67
2022/01/21 03:22:30;;;;;;;1.88;1.60;;;;;;;7.86;52.34;95039.75;5008506;28;20197;-65
2022/01/21 03:24:58;;;;;;;2.72;1.80;;;;;;;7.97;52.93;95049.34;5009318;28;20277;-65
2022/01/21 03:27:25;;;;;;;2.08;1.30;;;;;;;8.14;51.36;95034.47;5024571;28;20224;-65
2022/01/21 03:29:52;;;;;;;1.65;1.48;;;;;;;7.72;52.53;95046.28;5024351;28;20640;-66
2022/01/21 03:32:19;;;;;;;2.53;1.80;;;;;;;8.03;52.21;95043.97;5041645;28;20202;-67
2022/01/21 03:34:45;;;;;;;2.60;1.27;;;;;;;8.00;52.36;95051.47;5009183;28;20196;-67
2022/01/21 03:37:13;;;;;;;2.03;1.70;;;;;;;7.68;53.38;95056.38;5025355;28;20289;-69
2022/01/21 03:39:40;;;;;;;30.48;15.25;;;;;;;6.97;55.07;95059.41;5024652;28;20202;-69
2022/01/21 03:42:06;;;;;;;62.75;23.27;;;;;;;7.62;53.79;95059.94;5025036;28;20206;-69
2022/01/21 03:44:33;;;;;;;5.20;2.78;;;;;;;7.34;54.49;95059.09;5009708;28;20218;-69
2022/01/21 03:47:01;;;;;;;3.92;2.60;;;;;;;7.48;54.22;95061.22;5042805;28;20229;-69
2022/01/21 03:49:35;;;;;;;3.70;2.50;;;;;;;7.66;53.58;95070.69;5013183;28;20735;-69
2022/01/21 03:52:03;;;;;;;3.75;1.70;;;;;;;7.69;53.41;95071.00;5028921;28;20271;-70
2022/01/21 03:54:31;;;;;;;3.45;1.80;;;;;;;7.61;53.56;95041.91;5027730;28;20194;-69
2022/01/21 03:56:57;;;;;;;2.38;1.67;;;;;;;7.94;52.88;95066.25;5028483;28;20200;-70
2022/01/21 03:59:25;;;;;;;3.38;2.17;;;;;;;7.30;54.47;95078.84;5012737;28;20681;-70
2022/01/21 04:01:52;;;;;;;1.98;1.38;;;;;;;6.72;56.06;95082.31;5013255;28;20200;-68
2022/01/21 04:04:19;;;;;;;2.33;1.67;;;;;;;7.17;54.89;95075.47;5027314;28;20272;-67
2022/01/21 04:06:46;;;;;;;1.80;1.60;;;;;;;7.67;53.56;95054.00;5028588;28;20319;-70
2022/01/21 04:09:15;;;;;;;2.53;1.80;;;;;;;7.61;53.66;95092.22;5027930;28;20242;-70
2022/01/21 04:11:43;;;;;;;2.60;1.90;;;;;;;7.54;54.21;95081.16;5027897;28;20259;-70
2022/01/21 04:14:10;;;;;;;1.80;1.55;;;;;;;7.85;53.14;95083.31;5044739;28;20205;-68
2022/01/21 04:16:37;;;;;;;2.58;1.80;;;;;;;7.77;53.14;95095.94;5028284;28;20713;-70
2022/01/21 04:19:04;;;;;;;2.95;1.70;;;;;;;7.53;53.65;95099.63;5028261;28;20202;-68
2022/01/21 04:21:31;;;;;;;6.18;3.80;;;;;;;6.97;55.57;95106.28;5028113;28;20205;-71
2022/01/21 04:24:01;;;;;;;3.65;2.03;;;;;;;7.10;54.83;95105.25;5028040;28;20206;-68
2022/01/21 04:26:40;;;;;;;3.10;2.22;;;;;;;6.91;55.64;95099.41;5028135;28;20299;-69
2022/01/21 04:29:13;;;;;;;3.00;2.13;;;;;;;6.78;55.91;95112.66;5027845;28;20634;-69
2022/01/21 04:31:52;;;;;;;3.67;2.35;;;;;;;6.55;56.06;95115.22;5011613;28;20205;-68
2022/01/21 04:34:24;;;;;;;2.45;1.90;;;;;;;6.90;55.20;95116.03;5028213;28;20260;-69
2022/01/21 04:36:51;;;;;;;3.28;2.28;;;;;;;7.35;54.81;95128.47;5028313;28;20202;-67
2022/01/21 04:39:28;;;;;;;2.55;2.00;;;;;;;6.97;55.18;95136.78;5027700;28;20202;-68
2022/01/21 04:47:28;;;;;;;4.30;2.30;;;;;;;7.57;53.95;95135.44;5028133;28;20740;-65
2022/01/21 04:49:55;;;;;;;3.60;2.47;;;;;;;7.60;53.38;95157.66;5027058;28;20198;-65
2022/01/21 04:52:23;;;;;;;3.50;2.75;;;;;;;7.41;53.46;95148.41;5027757;28;20205;-65
2022/01/21 04:55:04;;;;;;;3.25;2.05;;;;;;;7.29;54.66;95151.03;5027295;28;20198;-66
2022/01/21 04:57:34;;;;;;;4.18;2.83;;;;;;;7.38;53.70;95156.69;5010953;28;20256;-66
2022/01/21 05:00:04;;;;;;;2.50;1.83;;;;;;;6.81;54.16;95127.03;5025515;28;20212;-72
2022/01/21 05:02:34;;;;;;;3.05;2.60;;;;;;;6.73;54.72;95172.41;5006797;28;20257;-65
2022/01/21 05:05:03;;;;;;;3.78;2.20;;;;;;;6.58;55.19;95179.06;5019977;28;20197;-66
2022/01/21 05:07:35;;;;;;;11.35;6.65;;;;;;;6.70;55.32;95178.06;5028213;28;20221;-66
2022/01/21 05:10:03;;;;;;;4.38;3.05;;;;;;;6.44;55.08;95177.69;5027825;28;20260;-64
2022/01/21 05:12:30;;;;;;;4.63;2.40;;;;;;;6.28;56.14;95179.09;5027538;28;20201;-65
2022/01/21 05:17:29;;;;;;;2.65;1.80;;;;;;;6.17;55.55;95184.28;5027094;28;20308;-65
2022/01/21 05:19:56;;;;;;;3.03;1.80;;;;;;;6.37;54.39;95188.19;5008422;28;20206;-64
2022/01/21 05:22:46;;;;;;;1.70;1.30;;;;;;;5.70;55.50;95181.44;4991366;28;20217;-66
2022/01/21 05:25:18;;;;;;;1.95;1.55;;;;;;;6.06;55.91;95201.41;4992203;28;20658;-63
2022/01/21 05:27:51;;;;;;;2.55;1.92;;;;;;;6.51;55.02;95204.41;5023396;28;20238;-66
2022/01/21 05:30:19;;;;;;;3.30;1.60;;;;;;;5.95;56.00;95209.94;4990734;28;20693;-64
2022/01/21 05:33:04;;;;;;;3.88;1.50;;;;;;;6.54;54.66;95204.75;4991867;28;20325;-62
2022/01/21 05:35:50;;;;;;;2.33;1.40;;;;;;;6.25;54.98;95221.19;4992072;28;20213;-64
2022/01/21 05:38:55;;;;;;;3.42;1.75;;;;;;;6.26;54.73;95214.97;5007028;28;20210;-65
2022/01/21 05:41:51;;;;;;;8.85;4.90;;;;;;;6.87;54.27;95225.91;5008102;28;20241;-63
2022/01/21 05:47:17;;;;;;;7.18;2.50;;;;;;;6.96;53.23;95239.38;5006160;28;20226;-64
2022/01/21 05:49:58;;;;;;;49.47;27.40;;;;;;;7.07;52.65;95252.44;5005375;28;20653;-63
2022/01/21 05:52:46;;;;;;;4.85;2.45;;;;;;;6.97;52.36;95241.75;5009770;28;20216;-64
2022/01/21 05:55:25;;;;;;;3.38;2.17;;;;;;;6.67;52.99;95229.81;5011291;28;20197;-66
2022/01/21 05:58:24;;;;;;;6.38;2.20;;;;;;;7.24;51.90;95252.56;5020445;28;20247;-62
2022/01/21 06:00:51;;;;;;;7.18;3.65;;;;;;;7.02;52.56;95259.34;5011113;28;20621;-62
2022/01/21 06:03:19;;;;;;;36.53;20.60;;;;;;;7.07;53.03;95268.06;5026045;28;20684;-64
2022/01/21 06:05:52;;;;;;;6.22;3.20;;;;;;;6.94;53.17;95273.47;5018850;28;20210;-64
2022/01/21 06:08:19;;;;;;;4.18;2.00;;;;;;;7.12;52.08;95276.00;5005724;28;20316;-64
2022/01/21 06:10:46;;;;;;;2.97;1.90;;;;;;;6.55;52.38;95284.44;4989409;28;20213;-68
2022/01/21 06:13:16;;;;;;;2.40;1.80;;;;;;;6.48;54.10;95277.75;4991168;28;20669;-66
2022/01/21 06:15:44;;;;;;;3.25;1.90;;;;;;;6.78;52.75;95266.31;4991386;28;20576;-65
2022/01/21 06:18:11;;;;;;;4.78;1.63;;;;;;;6.43;52.60;95288.81;4989410;28;20205;-63
2022/01/21 06:20:38;;;;;;;3.28;1.95;;;;;;;6.59;52.29;95295.22;4989788;28;20249;-63
2022/01/21 06:23:05;;;;;;;2.63;1.60;;;;;;;6.70;51.72;95303.06;4990254;28;20202;-62
2022/01/21 06:25:32;;;;;;;3.65;2.00;;;;;;;6.24;52.67;95313.25;4991567;28;20210;-62
2022/01/21 06:27:59;;;;;;;4.15;1.92;;;;;;;5.99;52.90;95320.34;4991011;28;20241;-63
2022/01/21 06:30:26;;;;;;;3.60;2.10;;;;;;;6.33;52.47;95324.19;4991428;28;20311;-62
2022/01/21 06:32:53;;;;;;;4.20;2.10;;;;;;;6.32;51.90;95326.00;4990380;28;20178;-64
2022/01/21 06:35:20;;;;;;;3.42;2.08;;;;;;;5.73;52.96;95326.59;4991043;28;20187;-63
2022/01/21 06:37:47;;;;;;;6.25;2.35;;;;;;;6.00;52.23;95337.56;4990605;28;20221;-62
2022/01/21 06:40:15;;;;;;;4.65;2.80;;;;;;;6.39;51.47;95347.53;4991103;28;20214;-63
2022/01/21 06:42:42;;;;;;;4.65;2.50;;;;;;;6.39;51.39;95336.31;4990964;28;20210;-64
2022/01/21 06:45:10;;;;;;;4.38;2.33;;;;;;;6.52;49.89;95342.16;4991015;28;20206;-63
2022/01/21 06:47:37;;;;;;;5.70;2.13;;;;;;;6.47;50.63;95360.25;4991368;28;20222;-63
2022/01/21 06:50:04;;;;;;;3.78;2.17;;;;;;;6.77;50.22;95355.09;4989828;28;20206;-63
2022/01/21 06:52:31;;;;;;;3.47;2.05;;;;;;;6.47;49.93;95349.84;4990360;28;20203;-64
2022/01/21 06:54:59;;;;;;;3.78;1.85;;;;;;;6.64;50.05;95358.63;4990392;28;20194;-64
2022/01/21 06:57:28;;;;;;;3.50;1.70;;;;;;;6.50;49.97;95367.63;4990731;28;20213;-64
2022/01/21 06:59:55;;;;;;;2.10;1.48;;;;;;;6.46;50.62;95368.28;4989890;28;20213;-64
2022/01/21 07:02:22;;;;;;;7.50;1.92;;;;;;;6.45;50.22;95371.88;4990520;28;20242;-64
2022/01/21 07:04:50;;;;;;;4.10;2.03;;;;;;;6.41;49.45;95361.13;4990275;28;20210;-66
2022/01/21 07:07:20;;;;;;;6.90;2.30;;;;;;;6.16;49.89;95373.41;4990528;28;20218;-65
2022/01/21 07:09:48;;;;;;;6.32;2.55;;;;;;;6.55;48.86;95362.53;4989708;28;20674;-64
2022/01/21 07:12:16;;;;;;;4.82;2.60;;;;;;;6.44;48.83;95396.34;4990581;28;20210;-65
2022/01/21 07:14:42;;;;;;;3.42;2.25;;;;;;;5.96;50.25;95378.00;4988591;28;20682;-65
2022/01/21 07:17:09;;;;;;;6.63;2.35;;;;;;;6.67;49.12;95383.44;4990109;28;20233;-64
2022/01/21 07:19:36;;;;;;;9.65;2.78;;;;;;;6.73;48.84;95391.16;4989898;28;20250;-64
2022/01/21 07:22:03;;;;;;;6.20;2.80;;;;;;;6.81;48.49;95400.50;4989386;28;20194;-66
2022/01/21 07:24:30;;;;;;;5.07;2.47;;;;;;;5.89;50.52;95413.69;4989998;28;20193;-64
2022/01/21 07:26:57;;;;;;;6.60;2.97;;;;;;;5.68;51.16;95406.22;4990503;28;20202;-65
2022/01/21 07:29:24;;;;;;;5.07;2.60;;;;;;;6.38;50.12;95421.44;4989508;28;20229;-65
2022/01/21 07:31:54;;;;;;;6.45;3.30;;;;;;;6.16;49.91;95415.03;4990131;28;20203;-65
2022/01/21 07:34:23;;;;;;;3.50;2.33;;;;;;;6.28;50.03;95407.34;4988938;28;20605;-65
2022/01/21 07:36:51;;;;;;;8.07;2.90;;;;;;;5.66;51.53;95427.25;4990327;28;20219;-65
2022/01/21 07:39:18;;;;;;;6.25;3.90;;;;;;;5.35;53.29;95442.03;4990048;28;20190;-65
2022/01/21 07:41:45;;;;;;;8.68;4.18;;;;;;;5.80;51.98;95436.53;4990033;28;20601;-65
2022/01/21 07:44:15;;;;;;;9.02;3.75;;;;;;;6.03;51.69;95435.97;5003216;28;20308;-63
2022/01/21 07:46:43;;;;;;;9.95;4.05;;;;;;;5.97;51.62;95440.22;4990241;28;20202;-66
2022/01/21 07:49:10;;;;;;;6.45;3.58;;;;;;;5.48;52.33;95434.97;4989282;28;20230;-65
2022/01/21 07:51:38;;;;;;;8.20;5.13;;;;;;;5.56;52.74;95449.53;4989728;28;20673;-66
2022/01/21 07:54:05;;;;;;;7.90;4.53;;;;;;;5.80;52.70;95430.53;4988423;28;20678;-65
2022/01/21 07:56:33;;;;;;;10.23;5.30;;;;;;;5.82;53.33;95438.94;4989795;28;20214;-66
2022/01/21 07:59:03;;;;;;;26.92;6.00;;;;;;;5.16;54.07;95454.94;4989689;28;20660;-66
2022/01/21 08:01:30;;;;;;;12.43;5.20;;;;;;;5.06;54.21;95454.63;4989955;28;20194;-66
2022/01/21 08:03:58;;;;;;;12.68;5.35;;;;;;;5.34;53.45;95456.06;4988951;28;20289;-67
2022/01/21 08:06:25;;;;;;;8.52;4.95;;;;;;;5.21;53.58;95461.31;4990080;28;20198;-65
2022/01/21 08:08:54;;;;;;;9.18;5.05;;;;;;;5.04;53.97;95445.44;4989600;28;20220;-66
2022/01/21 08:11:22;;;;;;;10.20;5.10;;;;;;;5.70;53.29;95451.00;4989564;28;20206;-66
2022/01/21 08:13:49;;;;;;;11.70;5.00;;;;;;;5.38;54.25;95470.22;4989357;28;20222;-66
2022/01/21 08:16:17;;;;;;;11.93;4.63;;;;;;;5.79;53.42;95466.16;4989622;28;20293;-65
2022/01/21 08:18:44;;;;;;;12.73;5.13;;;;;;;5.48;52.90;95467.97;4989102;28;20198;-66
2022/01/21 08:21:18;;;;;;;10.40;5.18;;;;;;;5.96;52.11;95471.66;4989388;28;20297;-65
2022/01/21 08:23:48;;;;;;;9.73;5.75;;;;;;;5.60;52.40;95484.50;4988858;28;20210;-65
2022/01/21 08:26:19;;;;;;;13.93;6.03;;;;;;;5.73;52.27;95479.22;4989644;28;20230;-66
2022/01/21 08:28:46;;;;;;;11.38;5.40;;;;;;;5.43;52.84;95478.19;4989065;28;20233;-65
2022/01/21 08:31:13;;;;;;;9.60;5.63;;;;;;;5.00;53.91;95486.59;4989362;28;20198;-67
2022/01/21 08:33:40;;;;;;;9.57;5.05;;;;;;;5.74;51.71;95473.78;4991292;28;20535;-66
2022/01/21 08:36:07;;;;;;;10.00;5.00;;;;;;;5.28;52.89;95499.25;4993125;28;20650;-66
2022/01/21 08:38:35;;;;;;;9.18;4.55;;;;;;;5.30;52.96;95496.44;4992736;28;20202;-66
2022/01/21 08:41:02;;;;;;;8.18;4.30;;;;;;;5.25;52.45;95493.69;4992973;28;20289;-65
2022/01/21 08:43:29;;;;;;;5.28;3.58;;;;;;;5.33;51.55;95485.66;4992769;28;20319;-65
2022/01/21 08:45:56;;;;;;;6.72;3.58;;;;;;;5.64;51.34;95473.44;4993705;28;20203;-66
2022/01/21 08:48:23;;;;;;;7.43;3.65;;;;;;;5.05;53.09;95465.22;4992648;28;20226;-66
2022/01/21 08:50:50;;;;;;;7.07;3.72;;;;;;;5.22;51.83;95452.53;4993054;28;20190;-65
2022/01/21 08:53:36;;;;;;;5.53;3.45;;;;;;;5.79;51.57;95475.75;4992721;28;20199;-66
2022/01/21 08:56:14;;;;;;;6.90;3.53;;;;;;;6.00;51.27;95468.41;4993060;28;20210;-66
2022/01/21 08:58:43;;;;;;;7.78;4.22;;;;;;;5.81;51.08;95476.34;4992965;28;20210;-66
2022/01/21 09:01:12;;;;;;;6.25;4.03;;;;;;;5.83;51.42;95485.56;4992572;28;20253;-65
2022/01/21 09:03:41;;;;;;;7.00;3.80;;;;;;;6.03;50.43;95498.41;4993462;28;20265;-65
2022/01/21 09:06:09;;;;;;;8.00;4.18;;;;;;;5.65;51.40;95501.06;4993227;28;20201;-66
2022/01/21 09:08:38;;;;;;;7.65;4.05;;;;;;;5.69;51.62;95485.84;4992380;28;20608;-65
2022/01/21 09:11:05;;;;;;;9.18;4.20;;;;;;;5.76;51.26;95486.56;4992790;28;20199;-66
2022/01/21 09:13:38;;;;;;;7.15;4.07;;;;;;;5.92;50.51;95475.69;4992094;28;20195;-66
2022/01/21 09:16:06;;;;;;;7.53;4.00;;;;;;;5.56;51.16;95460.72;4992250;28;20227;-66
2022/01/21 09:18:45;;;;;;;11.98;5.38;;;;;;;6.59;49.58;95457.44;4992270;28;20758;-65
2022/01/21 09:21:29;;;;;;;9.20;3.92;;;;;;;6.61;48.98;95455.41;4991914;28;20656;-65
2022/01/21 09:23:56;;;;;;;7.50;3.35;;;;;;;6.67;48.66;95461.56;4992111;28;20194;-66
2022/01/21 09:26:25;;;;;;;4.75;3.03;;;;;;;6.39;47.29;95451.63;4992503;28;20281;-66
2022/01/21 09:28:56;;;;;;;6.90;3.50;;;;;;;6.07;48.58;95435.34;4991877;28;20221;-67
2022/01/21 09:31:23;;;;;;;7.50;4.10;;;;;;;6.57;48.05;95430.81;4991834;28;20202;-66
2022/01/21 09:34:11;;;;;;;6.47;4.20;;;;;;;6.43;47.51;95413.75;4991181;28;20728;-66
2022/01/21 09:36:37;;;;;;;5.25;2.95;;;;;;;6.48;46.76;95403.47;4992478;28;20579;-68
2022/01/21 09:39:05;;;;;;;7.47;3.55;;;;;;;6.44;47.24;95402.31;4991753;28;20205;-66
2022/01/21 09:41:32;;;;;;;8.23;3.60;;;;;;;5.61;48.76;95415.88;4991844;28;20313;-65
2022/01/21 09:44:02;;;;;;;6.47;3.28;;;;;;;5.71;48.81;95421.41;4991487;28;20210;-66
2022/01/21 09:46:35;;;;;;;5.40;3.58;;;;;;;5.33;49.23;95423.31;4991818;28;20297;-66
2022/01/21 09:51:49;;;;;;;10.27;5.10;;;;;;;6.92;47.96;95423.19;4991779;28;20210;-66
2022/01/21 09:54:17;;;;;;;17.15;5.22;;;;;;;7.29;47.32;95416.09;4990979;28;20202;-65
2022/01/21 09:56:46;;;;;;;9.30;4.40;;;;;;;6.58;48.34;95416.00;4991956;28;20202;-65
2022/01/21 09:59:18;;;;;;;6.32;4.13;;;;;;;6.78;48.08;95429.59;4991116;28;20206;-66
2022/01/21 10:01:50;;;;;;;6.03;3.88;;;;;;;6.75;47.18;95425.59;4991671;28;20204;-65
2022/01/21 10:04:19;;;;;;;9.10;5.00;;;;;;;6.38;47.69;95411.00;4991280;28;20210;-66
2022/01/21 10:06:47;;;;;;;9.80;5.32;;;;;;;6.74;46.98;95403.19;4991671;28;20206;-66
2022/01/21 10:09:16;;;;;;;9.68;6.05;;;;;;;6.87;46.12;95410.03;4990869;28;20273;-66
2022/01/21 10:11:49;;;;;;;12.02;6.00;;;;;;;6.78;46.18;95412.16;4991113;28;20704;-65
2022/01/21 10:14:21;;;;;;;9.60;5.60;;;;;;;6.40;46.33;95397.78;4990530;28;20190;-66
2022/01/21 10:16:48;;;;;;;12.38;6.53;;;;;;;6.49;47.33;95399.88;4991022;28;20234;-66
2022/01/21 10:19:29;;;;;;;11.27;5.20;;;;;;;6.39;45.93;95394.38;4990637;28;20198;-65
2022/01/21 10:22:18;;;;;;;9.43;4.45;;;;;;;5.62;46.21;95401.91;4991294;28;20210;-65
2022/01/21 10:25:00;;;;;;;9.25;3.85;;;;;;;6.12;45.29;95388.66;4990590;28;20290;-65
2022/01/21 10:27:36;;;;;;;5.70;3.58;;;;;;;6.09;45.10;95385.69;4991616;28;20237;-67
2022/01/21 10:30:23;;;;;;;9.90;3.88;;;;;;;6.32;45.46;95388.44;4989650;28;20233;-66
2022/01/21 10:32:50;;;;;;;7.18;3.40;;;;;;;5.40;45.95;95393.63;4990258;28;20210;-64
2022/01/21 10:35:34;;;;;;;9.15;4.05;;;;;;;4.96;46.69;95391.91;4991127;28;20198;-66
2022/01/21 10:38:23;;;;;;;4.93;3.00;;;;;;;5.62;46.14;95381.09;4990371;28;20213;-65
2022/01/21 10:40:51;;;;;;;7.10;2.92;;;;;;;6.31;45.93;95376.47;4990644;28;20199;-66
2022/01/21 10:43:21;;;;;;;6.55;3.38;;;;;;;6.33;44.97;95374.44;4990009;28;20203;-66
2022/01/21 10:45:48;;;;;;;9.00;4.40;;;;;;;6.50;44.33;95375.44;4990729;28;20547;-66
2022/01/21 10:48:15;;;;;;;10.18;5.18;;;;;;;6.45;44.34;95362.28;4990755;28;20252;-66
2022/01/21 10:50:41;;;;;;;5.78;2.60;;;;;;;5.77;45.29;95373.75;4991000;28;20199;-65
2022/01/21 10:53:26;;;;;;;5.82;2.92;;;;;;;5.93;44.75;95378.47;4990366;28;20183;-66
2022/01/21 10:55:53;;;;;;;4.60;2.67;;;;;;;6.56;44.35;95371.16;4990135;28;20666;-67
2022/01/21 10:58:20;;;;;;;9.27;3.80;;;;;;;7.45;43.03;95363.31;4989832;28;20265;-65
2022/01/21 11:01:04;;;;;;;4.32;2.60;;;;;;;6.67;44.09;95365.22;4990911;28;20194;-65
2022/01/21 11:03:32;;;;;;;4.40;2.13;;;;;;;5.47;44.73;95365.03;4990009;28;20289;-66
2022/01/21 11:06:18;;;;;;;4.28;2.60;;;;;;;6.24;44.34;95354.91;4990412;28;20195;-66
2022/01/21 11:08:49;;;;;;;4.55;2.72;;;;;;;5.98;45.42;95350.78;4989491;28;20764;-67
2022/01/21 11:11:23;;;;;;;9.27;3.08;;;;;;;6.26;44.97;95344.28;4989132;28;20191;-65
2022/01/21 11:13:50;;;;;;;8.80;4.47;;;;;;;5.98;44.98;95350.00;4990214;28;20210;-65
2022/01/21 11:16:24;;;;;;;5.57;3.53;;;;;;;6.65;43.47;95342.00;4989929;28;20605;-67
2022/01/21 11:19:13;;;;;;;7.93;3.72;;;;;;;6.33;45.32;95342.41;4989640;28;20194;-66
2022/01/21 11:21:43;;;;;;;9.15;4.30;;;;;;;6.10;45.31;95338.66;4990330;28;20229;-65
2022/01/21 11:24:12;;;;;;;10.82;3.70;;;;;;;6.58;45.33;95343.91;4989712;28;20206;-66
2022/01/21 11:26:39;;;;;;;12.18;4.03;;;;;;;6.73;45.10;95344.28;4990307;28;20185;-65
2022/01/21 11:29:09;;;;;;;10.00;4.35;;;;;;;6.65;44.57;95343.81;4989628;28;20709;-65
2022/01/21 11:31:36;;;;;;;8.68;4.40;;;;;;;6.13;44.09;95332.22;4990348;28;20721;-65
2022/01/21 11:34:11;;;;;;;11.13;4.50;;;;;;;6.60;44.08;95323.66;4990041;28;20209;-66
2022/01/21 11:36:38;;;;;;;61.75;26.50;;;;;;;6.44;44.45;95329.44;4990593;28;20185;-65
2022/01/21 11:39:05;;;;;;;18.77;5.75;;;;;;;6.62;45.06;95336.44;4989325;28;20237;-65
2022/01/21 11:41:35;;;;;;;7.40;4.60;;;;;;;6.40;44.08;95349.13;4988285;28;20210;-66
2022/01/21 11:44:04;;;;;;;12.65;4.80;;;;;;;5.72;44.72;95347.59;4989728;28;20206;-66
2022/01/21 11:49:10;;;;;;;9.30;4.65;;;;;;;6.44;44.59;95334.63;4989391;28;20214;-65
2022/01/21 11:51:39;;;;;;;10.00;5.18;;;;;;;5.42;44.70;95349.28;4989718;28;20225;-68
2022/01/21 11:54:14;;;;;;;12.35;5.85;;;;;;;5.76;44.71;95361.78;4989710;28;20276;-64
2022/01/21 11:56:46;;;;;;;12.63;6.45;;;;;;;5.80;45.51;95348.09;4990397;28;20583;-66
2022/01/21 11:59:19;;;;;;;18.05;7.75;;;;;;;6.51;44.05;95345.78;4989599;28;20210;-65
2022/01/21 12:01:47;;;;;;;11.45;6.82;;;;;;;5.89;43.72;95335.69;4989905;28;20190;-64
2022/01/21 12:04:45;;;;;;;10.73;5.40;;;;;;;5.84;45.72;95332.91;4989560;28;21030;-66
2022/01/21 12:07:33;;;;;;;9.82;4.60;;;;;;;5.07;44.00;95347.09;4991326;28;20220;-66
2022/01/21 12:10:23;;;;;;;7.45;4.18;;;;;;;5.37;44.79;95351.69;4993123;28;20766;-65
2022/01/21 12:20:47;;;;;;;12.80;5.85;;;;;;;5.85;44.59;95337.13;4993644;28;20216;-66
2022/01/21 12:23:15;;;;;;;10.25;4.68;;;;;;;5.41;44.66;95345.88;4993175;28;20210;-67
2022/01/21 12:26:16;;;;;;;9.00;5.38;;;;;;;5.60;44.24;95342.28;4993663;28;20199;-65
2022/01/21 12:28:46;;;;;;;7.95;5.18;;;;;;;5.99;44.94;95326.34;4992781;28;20705;-67
2022/01/21 12:31:16;;;;;;;8.73;5.13;;;;;;;6.20;44.23;95338.16;4993005;28;20264;-66
2022/01/21 12:34:08;;;;;;;9.23;6.15;;;;;;;6.59;44.00;95316.03;4993074;28;20217;-66
2022/01/21 12:37:05;;;;;;;10.45;6.30;;;;;;;5.66;44.85;95325.84;4993337;28;20213;-65
2022/01/21 12:39:46;;;;;;;11.02;6.00;;;;;;;6.24;44.00;95322.91;4993571;28;20686;-66
2022/01/21 12:42:19;;;;;;;8.60;6.10;;;;;;;5.60;45.00;95320.72;4993410;28;20197;-66
2022/01/21 12:45:06;;;;;;;11.18;6.20;;;;;;;5.78;44.77;95310.34;4992640;28;20199;-68
2022/01/21 12:47:37;;;;;;;8.15;5.45;;;;;;;5.95;44.04;95309.59;4995875;28;20595;-68
2022/01/21 12:50:18;;;;;;;10.63;5.93;;;;;;;6.06;43.90;95310.66;4992667;28;20225;-66
2022/01/21 12:58:18;;;;;;;10.07;5.30;;;;;;;5.45;43.81;95312.47;4991994;28;20301;-65
2022/01/21 13:00:46;;;;;;;21.52;12.63;;;;;;;5.95;43.58;95319.19;4992776;28;20189;-66